Pular para o conteúdo principal

INCIDENTE COM JATO PHENOM 100 NO TEXAS



Um Jato EMBRAER Phenom 100, registro N584JS, ns 50000140, saiu da pista ao pousar no Aeroporto de Houston-Sugar Land (HOU/KHOU). A aeronave pousou na pista 35 e não conseguiu parar, acabou deslizando até um pequeno riacho. O incidente aconteceu no dia 21 de novembro, e sem ferimentos nos dois tripulantes.


METAR Weather report:
16:03 UTC / 10:03 local time:
KSGR 211603Z 12009KT RA 2SM BR SCT008 BKN035 OVC044 19/18 A3015 RMK AO2 P0002 T01890178
16:12 UTC / 10:12 local time:
KSGR 211612Z 13008KT 6SM -RA BR FEW008 19/18 A3015 RMK BKN033 OVC042 AO2 P0003 T01890178
Wind 130 degrees at 8 knots; Visibility: 6 miles; light rain, mist; few clouds at 800 feet AGL; broken clouds at 3300 feet AGL; overcast cloud deck at 4200 feet AGL; Temperature: 19°C; Dewpoint: 18°C; Pressure 1021.1 mb
16:25 UTC / 10:25 local time:
KSGR 211625Z 13008KT 10SM FEW006 BKN018 A3015 RMK AO2 OVC044 19/18 RAE20 ACRFT MISHAP P0003 T01940178
16:53 UTC / 10:53 local time:
KSGR 211653Z 13009KT 10SM FEW007 FEW011 A3015 RMK AO2 OVC017 20/18 RAE20 SLP212 ACRFT MISHAP P0003 T02000183

fonte/ASN/foto/Twitter

Comentários

Postagens mais visitadas deste blog

AVIÃO COM O SENADOR AÉCIO NEVES FAZ POUSO DE EMERGÊNCIA NO AEROPORTO DE GUARULHOS

Imagem com a aeronave em que estaria Aécio, fora da pista, e que circula na internet
O avião em que estava o senador Aécio Neves (PSDB) precisou fazer um pouso de emergência no aeroporto internacional de Guarulhos na noite de quinta-feira (9), informou sua assessoria de imprensa.
Já era noite quando a aeronave, um táxi aéreo fretado pelo PSDB, saiu de Brasília com destino a São Paulo. Os pilotos, percebendo que um pedaço do pneu havia ficado na pista, teriam solicitado autorização para pousar em Cumbica, ao invés de Congonhas, por ter uma pista maior. Ao aterrissar, no entanto, o trem de pouso teria se quebrado, vindo o avião a sair da pista.
Apenas Aécio e a tripulação estavam a bordo. Segundo a assessoria, nem ele nem os pilotos se feriram.
O senador veio para São Paulo porque tem reunião agendada com o ex-presidente Fernando Henrique Cardoso na manhã desta sexta (10). Apesar do incidente, o encontro foi mantido.
Fernanda Carvalho/O Tempo/Estadão Conteúdo
fonte/foto/UOL

Da…

VÍDEOS DO ACIDENTE COM BOEING 737 DA PERUVIAN AIRLINES EM JAUJA